sensor_id;sensor_type;location;lat;lon;timestamp;pressure;altitude;pressure_sealevel;temperature;humidity
72330;BME280;60660;52.076;5.110;2023-03-18T00:00:17;100810.36;;;15.17;25.84
72330;BME280;60660;52.076;5.110;2023-03-18T00:02:42;100804.43;;;15.66;25.55
72330;BME280;60660;52.076;5.110;2023-03-18T00:05:08;100803.37;;;16.49;24.85
72330;BME280;60660;52.076;5.110;2023-03-18T00:07:34;100803.61;;;17.25;24.24
72330;BME280;60660;52.076;5.110;2023-03-18T00:09:58;100806.87;;;17.10;24.58
72330;BME280;60660;52.076;5.110;2023-03-18T00:12:24;100812.29;;;16.82;24.95
72330;BME280;60660;52.076;5.110;2023-03-18T00:14:49;100817.07;;;15.59;25.83
72330;BME280;60660;52.076;5.110;2023-03-18T00:17:14;100818.05;;;15.03;26.16
72330;BME280;60660;52.076;5.110;2023-03-18T00:19:39;100820.69;;;15.11;26.34
72330;BME280;60660;52.076;5.110;2023-03-18T00:22:05;100823.71;;;15.58;26.02
72330;BME280;60660;52.076;5.110;2023-03-18T00:24:31;100829.32;;;14.91;26.77
72330;BME280;60660;52.076;5.110;2023-03-18T00:26:56;100828.77;;;14.85;27.35
72330;BME280;60660;52.076;5.110;2023-03-18T00:29:21;100828.71;;;14.67;27.45
72330;BME280;60660;52.076;5.110;2023-03-18T00:31:47;100829.66;;;14.85;27.20
72330;BME280;60660;52.076;5.110;2023-03-18T00:34:12;100829.99;;;15.31;26.71
72330;BME280;60660;52.076;5.110;2023-03-18T00:36:37;100825.06;;;15.67;26.49
72330;BME280;60660;52.076;5.110;2023-03-18T00:39:03;100827.38;;;15.02;26.39
72330;BME280;60660;52.076;5.110;2023-03-18T00:41:29;100829.67;;;15.66;26.03
72330;BME280;60660;52.076;5.110;2023-03-18T00:43:53;100832.82;;;15.78;25.99
72330;BME280;60660;52.076;5.110;2023-03-18T00:46:20;100830.10;;;15.22;26.23
72330;BME280;60660;52.076;5.110;2023-03-18T00:48:45;100823.59;;;15.11;26.29
72330;BME280;60660;52.076;5.110;2023-03-18T00:51:10;100819.17;;;15.58;25.72
72330;BME280;60660;52.076;5.110;2023-03-18T00:53:34;100817.17;;;16.57;24.48
72330;BME280;60660;52.076;5.110;2023-03-18T00:56:00;100816.88;;;16.98;24.29
72330;BME280;60660;52.076;5.110;2023-03-18T00:58:25;100817.19;;;16.99;24.58
72330;BME280;60660;52.076;5.110;2023-03-18T01:00:51;100818.42;;;16.56;25.38
72330;BME280;60660;52.076;5.110;2023-03-18T01:03:17;100823.38;;;16.16;25.81
72330;BME280;60660;52.076;5.110;2023-03-18T01:05:42;100825.23;;;15.45;26.89
72330;BME280;60660;52.076;5.110;2023-03-18T01:08:07;100820.08;;;14.46;28.24
72330;BME280;60660;52.076;5.110;2023-03-18T01:10:33;100817.58;;;15.26;27.68
72330;BME280;60660;52.076;5.110;2023-03-18T01:12:59;100816.07;;;14.65;27.79
72330;BME280;60660;52.076;5.110;2023-03-18T01:15:24;100816.28;;;14.98;27.67
72330;BME280;60660;52.076;5.110;2023-03-18T01:17:51;100819.42;;;15.28;27.24
72330;BME280;60660;52.076;5.110;2023-03-18T01:20:16;100821.41;;;14.79;27.03
72330;BME280;60660;52.076;5.110;2023-03-18T01:22:40;100823.29;;;15.01;26.46
72330;BME280;60660;52.076;5.110;2023-03-18T01:25:07;100824.22;;;16.34;25.80
72330;BME280;60660;52.076;5.110;2023-03-18T01:27:31;100825.92;;;16.40;25.69
72330;BME280;60660;52.076;5.110;2023-03-18T01:29:57;100828.56;;;16.16;26.17
72330;BME280;60660;52.076;5.110;2023-03-18T01:32:22;100825.11;;;15.33;26.78
72330;BME280;60660;52.076;5.110;2023-03-18T01:34:48;100821.43;;;15.53;26.54
72330;BME280;60660;52.076;5.110;2023-03-18T01:37:13;100821.08;;;15.29;26.53
72330;BME280;60660;52.076;5.110;2023-03-18T01:39:38;100823.24;;;15.33;26.42
72330;BME280;60660;52.076;5.110;2023-03-18T01:42:05;100826.37;;;15.95;25.80
72330;BME280;60660;52.076;5.110;2023-03-18T01:44:29;100829.83;;;16.24;25.91
72330;BME280;60660;52.076;5.110;2023-03-18T01:46:54;100832.54;;;15.83;26.77
72330;BME280;60660;52.076;5.110;2023-03-18T01:49:23;100832.81;;;14.53;28.12
72330;BME280;60660;52.076;5.110;2023-03-18T01:51:47;100827.75;;;14.62;28.30
72330;BME280;60660;52.076;5.110;2023-03-18T01:54:12;100828.78;;;14.84;28.32
72330;BME280;60660;52.076;5.110;2023-03-18T01:56:38;100830.95;;;14.24;28.81
72330;BME280;60660;52.076;5.110;2023-03-18T01:59:01;100832.51;;;14.23;29.07
72330;BME280;60660;52.076;5.110;2023-03-18T02:01:28;100829.92;;;13.90;29.17
72330;BME280;60660;52.076;5.110;2023-03-18T02:03:52;100827.17;;;14.54;28.61
72330;BME280;60660;52.076;5.110;2023-03-18T02:06:18;100829.90;;;14.74;28.46
72330;BME280;60660;52.076;5.110;2023-03-18T02:08:42;100827.62;;;14.82;28.23
72330;BME280;60660;52.076;5.110;2023-03-18T02:11:08;100826.41;;;14.06;28.83
72330;BME280;60660;52.076;5.110;2023-03-18T02:13:34;100832.63;;;14.37;28.12
72330;BME280;60660;52.076;5.110;2023-03-18T02:16:02;100838.44;;;14.97;27.85
72330;BME280;60660;52.076;5.110;2023-03-18T02:18:27;100836.54;;;13.96;28.62
72330;BME280;60660;52.076;5.110;2023-03-18T02:20:59;100840.16;;;14.43;28.63
72330;BME280;60660;52.076;5.110;2023-03-18T02:23:20;100837.94;;;13.86;28.83
72330;BME280;60660;52.076;5.110;2023-03-18T02:25:52;100833.61;;;13.26;29.56
72330;BME280;60660;52.076;5.110;2023-03-18T02:28:08;100826.98;;;13.38;28.90
72330;BME280;60660;52.076;5.110;2023-03-18T02:30:32;100836.11;;;14.73;27.58
72330;BME280;60660;52.076;5.110;2023-03-18T02:32:56;100835.62;;;16.09;26.65
72330;BME280;60660;52.076;5.110;2023-03-18T02:35:21;100836.06;;;15.32;27.24
72330;BME280;60660;52.076;5.110;2023-03-18T02:37:46;100838.58;;;14.92;27.17
72330;BME280;60660;52.076;5.110;2023-03-18T02:40:14;100838.09;;;15.88;26.32
72330;BME280;60660;52.076;5.110;2023-03-18T02:42:37;100840.34;;;15.31;26.69
72330;BME280;60660;52.076;5.110;2023-03-18T02:45:07;100843.97;;;15.76;26.98
72330;BME280;60660;52.076;5.110;2023-03-18T02:47:30;100849.29;;;15.19;27.68
72330;BME280;60660;52.076;5.110;2023-03-18T02:49:54;100839.97;;;13.89;28.78
72330;BME280;60660;52.076;5.110;2023-03-18T02:52:20;100837.56;;;14.33;28.45
72330;BME280;60660;52.076;5.110;2023-03-18T02:54:45;100838.22;;;14.80;28.13
72330;BME280;60660;52.076;5.110;2023-03-18T02:57:11;100840.43;;;14.22;28.44
72330;BME280;60660;52.076;5.110;2023-03-18T02:59:37;100840.68;;;13.14;29.41
72330;BME280;60660;52.076;5.110;2023-03-18T03:02:02;100844.26;;;13.94;29.43
72330;BME280;60660;52.076;5.110;2023-03-18T03:04:27;100846.65;;;13.37;29.73
72330;BME280;60660;52.076;5.110;2023-03-18T03:06:53;100848.91;;;13.15;30.33
72330;BME280;60660;52.076;5.110;2023-03-18T03:09:18;100850.31;;;13.84;29.59
72330;BME280;60660;52.076;5.110;2023-03-18T03:11:45;100849.16;;;13.53;29.81
72330;BME280;60660;52.076;5.110;2023-03-18T03:14:10;100850.50;;;13.38;29.58
72330;BME280;60660;52.076;5.110;2023-03-18T03:16:35;100858.91;;;12.80;30.13
72330;BME280;60660;52.076;5.110;2023-03-18T03:19:00;100860.16;;;13.41;29.97
72330;BME280;60660;52.076;5.110;2023-03-18T03:21:25;100864.90;;;13.03;30.31
72330;BME280;60660;52.076;5.110;2023-03-18T03:23:51;100867.01;;;12.79;30.34
72330;BME280;60660;52.076;5.110;2023-03-18T03:26:16;100866.15;;;12.11;31.39
72330;BME280;60660;52.076;5.110;2023-03-18T03:28:42;100867.48;;;12.32;31.04
72330;BME280;60660;52.076;5.110;2023-03-18T03:31:08;100870.56;;;12.44;31.25
72330;BME280;60660;52.076;5.110;2023-03-18T03:33:33;100869.96;;;12.18;31.67
72330;BME280;60660;52.076;5.110;2023-03-18T03:35:59;100868.98;;;12.96;31.01
72330;BME280;60660;52.076;5.110;2023-03-18T03:38:25;100872.55;;;13.01;31.14
72330;BME280;60660;52.076;5.110;2023-03-18T03:40:50;100874.41;;;13.26;30.83
72330;BME280;60660;52.076;5.110;2023-03-18T03:43:16;100871.82;;;13.31;30.49
72330;BME280;60660;52.076;5.110;2023-03-18T03:45:42;100875.06;;;13.43;30.48
72330;BME280;60660;52.076;5.110;2023-03-18T03:48:07;100876.93;;;13.31;30.66
72330;BME280;60660;52.076;5.110;2023-03-18T03:50:32;100876.33;;;13.17;31.05
72330;BME280;60660;52.076;5.110;2023-03-18T03:52:56;100876.90;;;12.29;32.01
72330;BME280;60660;52.076;5.110;2023-03-18T03:55:23;100876.71;;;12.91;31.37
72330;BME280;60660;52.076;5.110;2023-03-18T03:57:49;100878.26;;;12.54;31.57
72330;BME280;60660;52.076;5.110;2023-03-18T04:00:15;100878.41;;;13.53;30.89
72330;BME280;60660;52.076;5.110;2023-03-18T04:02:38;100877.48;;;12.90;31.41
72330;BME280;60660;52.076;5.110;2023-03-18T04:05:03;100878.76;;;13.43;30.89
72330;BME280;60660;52.076;5.110;2023-03-18T04:07:28;100879.86;;;12.65;32.10
72330;BME280;60660;52.076;5.110;2023-03-18T04:09:54;100881.11;;;12.72;32.50
72330;BME280;60660;52.076;5.110;2023-03-18T04:12:20;100881.77;;;12.54;32.26
72330;BME280;60660;52.076;5.110;2023-03-18T04:14:46;100880.60;;;12.78;31.58
72330;BME280;60660;52.076;5.110;2023-03-18T04:17:11;100885.07;;;13.20;31.31
72330;BME280;60660;52.076;5.110;2023-03-18T04:19:35;100887.96;;;13.15;31.28
72330;BME280;60660;52.076;5.110;2023-03-18T04:22:03;100888.96;;;12.98;31.20
72330;BME280;60660;52.076;5.110;2023-03-18T04:24:26;100889.80;;;12.91;31.58
72330;BME280;60660;52.076;5.110;2023-03-18T04:26:52;100887.72;;;12.89;32.22
72330;BME280;60660;52.076;5.110;2023-03-18T04:29:17;100884.80;;;12.26;32.63
72330;BME280;60660;52.076;5.110;2023-03-18T04:31:43;100885.74;;;12.25;32.77
72330;BME280;60660;52.076;5.110;2023-03-18T04:34:08;100886.57;;;11.72;34.07
72330;BME280;60660;52.076;5.110;2023-03-18T04:36:34;100884.80;;;12.02;33.50
72330;BME280;60660;52.076;5.110;2023-03-18T04:38:59;100887.09;;;12.10;33.67
72330;BME280;60660;52.076;5.110;2023-03-18T04:41:24;100891.43;;;11.35;34.57
72330;BME280;60660;52.076;5.110;2023-03-18T04:43:50;100891.14;;;11.36;34.70
72330;BME280;60660;52.076;5.110;2023-03-18T04:46:15;100895.12;;;10.80;35.96
72330;BME280;60660;52.076;5.110;2023-03-18T04:48:41;100899.38;;;10.81;36.08
72330;BME280;60660;52.076;5.110;2023-03-18T04:51:06;100893.48;;;11.96;34.89
72330;BME280;60660;52.076;5.110;2023-03-18T04:53:31;100892.63;;;10.97;36.10
72330;BME280;60660;52.076;5.110;2023-03-18T04:55:57;100895.84;;;11.57;35.83
72330;BME280;60660;52.076;5.110;2023-03-18T04:58:22;100902.86;;;11.05;36.09
72330;BME280;60660;52.076;5.110;2023-03-18T05:00:48;100909.97;;;11.79;35.52
72330;BME280;60660;52.076;5.110;2023-03-18T05:03:14;100917.32;;;11.82;35.36
72330;BME280;60660;52.076;5.110;2023-03-18T05:05:39;100916.07;;;12.05;34.58
72330;BME280;60660;52.076;5.110;2023-03-18T05:08:05;100924.40;;;11.71;34.85
72330;BME280;60660;52.076;5.110;2023-03-18T05:10:29;100934.95;;;11.97;34.83
72330;BME280;60660;52.076;5.110;2023-03-18T05:12:54;100934.84;;;12.24;34.21
72330;BME280;60660;52.076;5.110;2023-03-18T05:15:20;100937.47;;;11.81;33.99
72330;BME280;60660;52.076;5.110;2023-03-18T05:17:45;100940.23;;;12.81;32.96
72330;BME280;60660;52.076;5.110;2023-03-18T05:20:11;100939.95;;;12.57;33.18
72330;BME280;60660;52.076;5.110;2023-03-18T05:22:35;100943.85;;;13.79;32.05
72330;BME280;60660;52.076;5.110;2023-03-18T05:25:01;100943.41;;;13.09;32.24
72330;BME280;60660;52.076;5.110;2023-03-18T05:27:26;100941.81;;;13.36;31.67
72330;BME280;60660;52.076;5.110;2023-03-18T05:29:51;100936.49;;;13.68;31.19
72330;BME280;60660;52.076;5.110;2023-03-18T05:32:17;100935.56;;;12.88;31.69
72330;BME280;60660;52.076;5.110;2023-03-18T05:34:42;100932.46;;;14.10;30.74
72330;BME280;60660;52.076;5.110;2023-03-18T05:37:10;100935.83;;;13.58;31.48
72330;BME280;60660;52.076;5.110;2023-03-18T05:39:34;100942.42;;;14.55;30.51
72330;BME280;60660;52.076;5.110;2023-03-18T05:41:59;100944.20;;;13.88;30.76
72330;BME280;60660;52.076;5.110;2023-03-18T05:44:25;100941.36;;;14.26;30.34
72330;BME280;60660;52.076;5.110;2023-03-18T05:46:49;100939.97;;;14.09;30.45
72330;BME280;60660;52.076;5.110;2023-03-18T05:49:15;100941.25;;;14.14;30.04
72330;BME280;60660;52.076;5.110;2023-03-18T05:51:40;100946.17;;;14.71;29.65
72330;BME280;60660;52.076;5.110;2023-03-18T05:54:06;100945.42;;;13.31;31.15
72330;BME280;60660;52.076;5.110;2023-03-18T05:56:31;100949.08;;;14.13;30.92
72330;BME280;60660;52.076;5.110;2023-03-18T05:58:57;100954.41;;;13.86;30.79
72330;BME280;60660;52.076;5.110;2023-03-18T06:01:22;100958.43;;;14.17;30.49
72330;BME280;60660;52.076;5.110;2023-03-18T06:03:47;100963.01;;;14.07;30.23
72330;BME280;60660;52.076;5.110;2023-03-18T06:06:13;100961.50;;;14.20;30.23
72330;BME280;60660;52.076;5.110;2023-03-18T06:08:39;100957.39;;;13.75;30.65
72330;BME280;60660;52.076;5.110;2023-03-18T06:11:04;100952.40;;;14.07;30.30
72330;BME280;60660;52.076;5.110;2023-03-18T06:13:29;100954.63;;;14.15;30.38
72330;BME280;60660;52.076;5.110;2023-03-18T06:15:55;100959.86;;;14.27;30.13
72330;BME280;60660;52.076;5.110;2023-03-18T06:18:20;100959.44;;;13.30;30.58
72330;BME280;60660;52.076;5.110;2023-03-18T06:20:45;100963.80;;;14.04;30.61
72330;BME280;60660;52.076;5.110;2023-03-18T06:23:11;100966.79;;;14.36;30.58
72330;BME280;60660;52.076;5.110;2023-03-18T06:25:36;100970.79;;;14.41;30.26
72330;BME280;60660;52.076;5.110;2023-03-18T06:28:01;100974.50;;;14.29;30.25
72330;BME280;60660;52.076;5.110;2023-03-18T06:30:27;100977.34;;;14.46;30.45
72330;BME280;60660;52.076;5.110;2023-03-18T06:32:53;100986.88;;;14.34;30.79
72330;BME280;60660;52.076;5.110;2023-03-18T06:35:17;100990.00;;;14.27;30.54
72330;BME280;60660;52.076;5.110;2023-03-18T06:37:43;100994.45;;;13.98;30.69
72330;BME280;60660;52.076;5.110;2023-03-18T06:40:10;100998.46;;;14.54;30.11
72330;BME280;60660;52.076;5.110;2023-03-18T06:42:34;100994.86;;;15.02;29.56
72330;BME280;60660;52.076;5.110;2023-03-18T06:44:59;100996.61;;;14.57;29.72
72330;BME280;60660;52.076;5.110;2023-03-18T06:47:24;100995.74;;;15.20;29.13
72330;BME280;60660;52.076;5.110;2023-03-18T06:49:50;100996.93;;;15.26;28.87
72330;BME280;60660;52.076;5.110;2023-03-18T06:52:15;100997.12;;;15.43;28.44
72330;BME280;60660;52.076;5.110;2023-03-18T06:54:40;100997.96;;;14.60;29.19
72330;BME280;60660;52.076;5.110;2023-03-18T06:57:06;101003.63;;;15.02;28.64
72330;BME280;60660;52.076;5.110;2023-03-18T06:59:31;101006.22;;;15.06;28.60
72330;BME280;60660;52.076;5.110;2023-03-18T07:01:56;101006.83;;;15.15;28.77
72330;BME280;60660;52.076;5.110;2023-03-18T07:04:24;101012.00;;;14.98;28.96
72330;BME280;60660;52.076;5.110;2023-03-18T07:06:47;101022.29;;;13.94;30.47
72330;BME280;60660;52.076;5.110;2023-03-18T07:09:14;101027.52;;;14.10;30.80
72330;BME280;60660;52.076;5.110;2023-03-18T07:11:39;101027.06;;;13.46;32.33
72330;BME280;60660;52.076;5.110;2023-03-18T07:14:04;101027.63;;;13.79;33.36
72330;BME280;60660;52.076;5.110;2023-03-18T07:16:29;101025.00;;;15.51;31.35
72330;BME280;60660;52.076;5.110;2023-03-18T07:18:54;101024.02;;;16.08;30.25
72330;BME280;60660;52.076;5.110;2023-03-18T07:21:20;101022.95;;;15.95;29.48
72330;BME280;60660;52.076;5.110;2023-03-18T07:23:45;101025.15;;;17.06;27.98
72330;BME280;60660;52.076;5.110;2023-03-18T07:26:11;101029.61;;;15.84;29.29
72330;BME280;60660;52.076;5.110;2023-03-18T07:28:35;101031.55;;;15.01;29.71
72330;BME280;60660;52.076;5.110;2023-03-18T07:31:01;101038.44;;;15.97;30.14
72330;BME280;60660;52.076;5.110;2023-03-18T07:33:27;101042.25;;;17.63;28.46
72330;BME280;60660;52.076;5.110;2023-03-18T07:35:52;101041.94;;;18.92;26.50
72330;BME280;60660;52.076;5.110;2023-03-18T07:38:17;101039.21;;;19.88;26.22
72330;BME280;60660;52.076;5.110;2023-03-18T07:40:42;101043.23;;;16.10;27.99
72330;BME280;60660;52.076;5.110;2023-03-18T07:43:08;101046.85;;;16.69;28.13
72330;BME280;60660;52.076;5.110;2023-03-18T07:45:34;101043.90;;;14.55;30.27
72330;BME280;60660;52.076;5.110;2023-03-18T07:47:59;101037.67;;;15.24;29.86
72330;BME280;60660;52.076;5.110;2023-03-18T07:50:24;101035.69;;;14.37;30.49
72330;BME280;60660;52.076;5.110;2023-03-18T07:52:50;101041.62;;;14.67;30.57
72330;BME280;60660;52.076;5.110;2023-03-18T07:55:15;101049.48;;;16.52;29.39
72330;BME280;60660;52.076;5.110;2023-03-18T07:57:41;101051.29;;;18.57;27.56
72330;BME280;60660;52.076;5.110;2023-03-18T08:00:08;101057.35;;;17.96;27.30
72330;BME280;60660;52.076;5.110;2023-03-18T08:02:32;101053.42;;;18.58;26.43
72330;BME280;60660;52.076;5.110;2023-03-18T08:04:57;101055.83;;;18.04;26.95
72330;BME280;60660;52.076;5.110;2023-03-18T08:07:23;101060.59;;;16.71;28.14
72330;BME280;60660;52.076;5.110;2023-03-18T08:09:48;101056.09;;;16.78;28.59
72330;BME280;60660;52.076;5.110;2023-03-18T08:12:14;101055.14;;;16.52;29.01
72330;BME280;60660;52.076;5.110;2023-03-18T08:14:40;101052.00;;;16.92;28.37
72330;BME280;60660;52.076;5.110;2023-03-18T08:17:06;101052.13;;;16.89;28.44
72330;BME280;60660;52.076;5.110;2023-03-18T08:19:30;101047.43;;;17.27;28.46
72330;BME280;60660;52.076;5.110;2023-03-18T08:21:55;101047.18;;;16.98;28.25
72330;BME280;60660;52.076;5.110;2023-03-18T08:24:21;101044.24;;;17.02;28.36
72330;BME280;60660;52.076;5.110;2023-03-18T08:26:46;101042.03;;;17.06;28.55
72330;BME280;60660;52.076;5.110;2023-03-18T08:29:12;101037.95;;;16.51;29.16
72330;BME280;60660;52.076;5.110;2023-03-18T08:31:37;101032.74;;;17.18;27.62
72330;BME280;60660;52.076;5.110;2023-03-18T08:34:02;101034.65;;;16.72;27.71
72330;BME280;60660;52.076;5.110;2023-03-18T08:36:28;101040.16;;;17.11;27.65
72330;BME280;60660;52.076;5.110;2023-03-18T08:38:53;101043.23;;;16.55;28.01
72330;BME280;60660;52.076;5.110;2023-03-18T08:41:18;101039.25;;;15.39;29.37
72330;BME280;60660;52.076;5.110;2023-03-18T08:43:44;101041.76;;;14.77;30.12
72330;BME280;60660;52.076;5.110;2023-03-18T08:46:10;101047.04;;;14.82;31.04
72330;BME280;60660;52.076;5.110;2023-03-18T08:48:35;101052.08;;;16.02;29.99
72330;BME280;60660;52.076;5.110;2023-03-18T08:51:02;101056.06;;;16.43;28.83
72330;BME280;60660;52.076;5.110;2023-03-18T08:53:26;101058.00;;;14.80;30.39
72330;BME280;60660;52.076;5.110;2023-03-18T08:55:51;101056.95;;;15.78;29.99
72330;BME280;60660;52.076;5.110;2023-03-18T08:58:17;101062.90;;;16.46;29.09
72330;BME280;60660;52.076;5.110;2023-03-18T09:00:43;101064.73;;;16.20;29.12
72330;BME280;60660;52.076;5.110;2023-03-18T09:03:08;101065.36;;;16.49;29.25
72330;BME280;60660;52.076;5.110;2023-03-18T09:05:34;101069.80;;;16.46;29.43
72330;BME280;60660;52.076;5.110;2023-03-18T09:08:00;101069.25;;;15.86;30.03
72330;BME280;60660;52.076;5.110;2023-03-18T09:10:26;101068.15;;;15.60;30.34
72330;BME280;60660;52.076;5.110;2023-03-18T09:12:50;101067.08;;;14.92;30.51
72330;BME280;60660;52.076;5.110;2023-03-18T09:15:16;101068.45;;;14.18;31.68
72330;BME280;60660;52.076;5.110;2023-03-18T09:17:42;101071.38;;;15.32;30.46
72330;BME280;60660;52.076;5.110;2023-03-18T09:20:08;101073.47;;;14.11;31.92
72330;BME280;60660;52.076;5.110;2023-03-18T09:22:32;101072.03;;;14.09;32.94
72330;BME280;60660;52.076;5.110;2023-03-18T09:24:57;101075.38;;;13.89;32.39
72330;BME280;60660;52.076;5.110;2023-03-18T09:27:22;101082.09;;;13.59;33.48
72330;BME280;60660;52.076;5.110;2023-03-18T09:29:48;101088.92;;;14.27;33.26
72330;BME280;60660;52.076;5.110;2023-03-18T09:32:13;101099.93;;;13.15;34.27
72330;BME280;60660;52.076;5.110;2023-03-18T09:34:38;101099.28;;;13.53;33.78
72330;BME280;60660;52.076;5.110;2023-03-18T09:37:04;101110.08;;;12.72;35.23
72330;BME280;60660;52.076;5.110;2023-03-18T09:39:29;101104.57;;;14.26;34.09
72330;BME280;60660;52.076;5.110;2023-03-18T09:42:08;101107.63;;;14.86;32.89
72330;BME280;60660;52.076;5.110;2023-03-18T09:44:23;101106.72;;;14.44;33.18
72330;BME280;60660;52.076;5.110;2023-03-18T09:46:58;101106.43;;;14.01;33.67
72330;BME280;60660;52.076;5.110;2023-03-18T09:49:22;101103.37;;;15.13;32.67
72330;BME280;60660;52.076;5.110;2023-03-18T09:51:46;101101.32;;;17.10;29.97
72330;BME280;60660;52.076;5.110;2023-03-18T09:54:05;101103.47;;;17.81;28.93
72330;BME280;60660;52.076;5.110;2023-03-18T09:56:29;101101.82;;;17.39;28.06
72330;BME280;60660;52.076;5.110;2023-03-18T09:58:57;101099.51;;;15.92;29.88
72330;BME280;60660;52.076;5.110;2023-03-18T10:01:20;101097.57;;;16.36;29.40
72330;BME280;60660;52.076;5.110;2023-03-18T10:03:48;101101.87;;;16.07;30.37
72330;BME280;60660;52.076;5.110;2023-03-18T10:06:15;101101.10;;;16.64;28.92
72330;BME280;60660;52.076;5.110;2023-03-18T10:08:42;101100.32;;;16.93;28.17
72330;BME280;60660;52.076;5.110;2023-03-18T10:11:04;101095.74;;;18.13;27.71
72330;BME280;60660;52.076;5.110;2023-03-18T10:13:30;101085.23;;;18.89;26.35
72330;BME280;60660;52.076;5.110;2023-03-18T10:15:53;101082.86;;;19.49;26.22
72330;BME280;60660;52.076;5.110;2023-03-18T10:18:23;101086.56;;;20.70;24.54
72330;BME280;60660;52.076;5.110;2023-03-18T10:20:51;101082.79;;;21.13;23.95
72330;BME280;60660;52.076;5.110;2023-03-18T10:23:16;101082.27;;;23.46;21.82
72330;BME280;60660;52.076;5.110;2023-03-18T10:25:36;101079.41;;;24.31;20.85
72330;BME280;60660;52.076;5.110;2023-03-18T10:28:09;101081.62;;;25.83;20.26
72330;BME280;60660;52.076;5.110;2023-03-18T10:30:37;101080.22;;;24.26;20.17
72330;BME280;60660;52.076;5.110;2023-03-18T10:32:56;101082.21;;;21.51;21.48
72330;BME280;60660;52.076;5.110;2023-03-18T10:35:25;101088.82;;;19.54;24.18
72330;BME280;60660;52.076;5.110;2023-03-18T10:37:50;101094.11;;;17.97;25.86
72330;BME280;60660;52.076;5.110;2023-03-18T10:40:12;101096.26;;;17.13;26.91
72330;BME280;60660;52.076;5.110;2023-03-18T10:42:32;101098.18;;;16.78;28.05
72330;BME280;60660;52.076;5.110;2023-03-18T10:45:08;101096.97;;;15.65;29.14
72330;BME280;60660;52.076;5.110;2023-03-18T10:47:26;101101.59;;;16.39;29.00
72330;BME280;60660;52.076;5.110;2023-03-18T10:50:00;101100.90;;;16.77;28.64
72330;BME280;60660;52.076;5.110;2023-03-18T10:52:18;101103.58;;;16.69;28.84
72330;BME280;60660;52.076;5.110;2023-03-18T10:54:41;101108.15;;;17.47;28.33
72330;BME280;60660;52.076;5.110;2023-03-18T10:57:04;101103.02;;;16.46;28.86
72330;BME280;60660;52.076;5.110;2023-03-18T10:59:29;101104.55;;;16.27;29.39
72330;BME280;60660;52.076;5.110;2023-03-18T11:01:58;101105.42;;;18.36;27.86
72330;BME280;60660;52.076;5.110;2023-03-18T11:04:21;101100.92;;;16.40;29.24
72330;BME280;60660;52.076;5.110;2023-03-18T11:06:48;101103.32;;;16.47;28.78
72330;BME280;60660;52.076;5.110;2023-03-18T11:09:14;101109.19;;;18.42;27.61
72330;BME280;60660;52.076;5.110;2023-03-18T11:11:39;101105.54;;;19.66;25.80
72330;BME280;60660;52.076;5.110;2023-03-18T11:14:04;101108.27;;;18.34;26.17
72330;BME280;60660;52.076;5.110;2023-03-18T11:16:33;101110.63;;;18.40;26.99
72330;BME280;60660;52.076;5.110;2023-03-18T11:18:53;101104.81;;;17.61;27.41
72330;BME280;60660;52.076;5.110;2023-03-18T11:21:18;101099.21;;;16.43;28.24
72330;BME280;60660;52.076;5.110;2023-03-18T11:23:51;101100.98;;;17.80;27.69
72330;BME280;60660;52.076;5.110;2023-03-18T11:26:17;101108.10;;;15.23;29.91
72330;BME280;60660;52.076;5.110;2023-03-18T11:28:40;101105.96;;;16.44;28.70
72330;BME280;60660;52.076;5.110;2023-03-18T11:31:04;101101.04;;;16.02;28.92
72330;BME280;60660;52.076;5.110;2023-03-18T11:33:28;101099.87;;;16.69;28.60
72330;BME280;60660;52.076;5.110;2023-03-18T11:35:51;101101.04;;;15.83;29.12
72330;BME280;60660;52.076;5.110;2023-03-18T11:38:17;101102.22;;;15.23;29.60
72330;BME280;60660;52.076;5.110;2023-03-18T11:40:40;101103.88;;;16.61;29.07
72330;BME280;60660;52.076;5.110;2023-03-18T11:43:15;101100.01;;;16.75;28.69
72330;BME280;60660;52.076;5.110;2023-03-18T11:45:44;101098.01;;;16.68;27.97
72330;BME280;60660;52.076;5.110;2023-03-18T11:47:57;101100.40;;;17.54;26.82
72330;BME280;60660;52.076;5.110;2023-03-18T11:50:24;101091.53;;;18.98;25.27
72330;BME280;60660;52.076;5.110;2023-03-18T11:52:53;101096.26;;;19.89;24.14
72330;BME280;60660;52.076;5.110;2023-03-18T11:55:20;101095.18;;;21.91;22.59
72330;BME280;60660;52.076;5.110;2023-03-18T11:57:50;101095.21;;;22.56;21.20
72330;BME280;60660;52.076;5.110;2023-03-18T12:00:15;101089.47;;;23.14;20.60
72330;BME280;60660;52.076;5.110;2023-03-18T12:02:46;101088.28;;;22.88;20.38
72330;BME280;60660;52.076;5.110;2023-03-18T12:05:03;101086.48;;;20.32;21.85
72330;BME280;60660;52.076;5.110;2023-03-18T12:07:39;101084.73;;;19.94;22.94
72330;BME280;60660;52.076;5.110;2023-03-18T12:09:51;101087.51;;;20.13;23.34
72330;BME280;60660;52.076;5.110;2023-03-18T12:12:26;101085.86;;;21.65;22.31
72330;BME280;60660;52.076;5.110;2023-03-18T12:14:42;101092.75;;;21.98;21.60
72330;BME280;60660;52.076;5.110;2023-03-18T12:17:17;101089.32;;;20.54;21.96
72330;BME280;60660;52.076;5.110;2023-03-18T12:20:21;101087.15;;;18.99;23.79
72330;BME280;60660;52.076;5.110;2023-03-18T12:22:07;101088.99;;;19.73;23.46
72330;BME280;60660;52.076;5.110;2023-03-18T12:24:31;101087.88;;;20.01;23.20
72330;BME280;60660;52.076;5.110;2023-03-18T12:26:52;101095.36;;;19.16;24.06
72330;BME280;60660;52.076;5.110;2023-03-18T12:29:30;101093.22;;;18.25;24.36
72330;BME280;60660;52.076;5.110;2023-03-18T12:31:44;101093.64;;;18.89;23.49
72330;BME280;60660;52.076;5.110;2023-03-18T12:34:03;101093.34;;;17.84;23.92
72330;BME280;60660;52.076;5.110;2023-03-18T12:36:37;101088.72;;;18.29;23.80
72330;BME280;60660;52.076;5.110;2023-03-18T12:39:16;101089.94;;;18.07;24.06